• Join FlightAware (Why Join?)
  • Login
  • US Flag 
06:55AM EDT


 

Airport Tracker/Info


-or-


 

Live Flight TrackerFlight Track Log ✈ SWA1834 ✈ 13-Apr-2013 ✈ KLAS - KMKE

Flight Track Log - Related Links

Times and Time Zones

All times are in EDT time to prevent confusion due to time zone crossing. See the SWA1834 flight status page for this flight to view local times or setup timezone preferences in your user account.

Time Position Orientation Groundspeed Altitude Reporting Facility
EDT Latitude Longitude Course Direction KTS MPH feet Rate Location/Type
07:35PM 36.0761 -115.1683 270° West 167 192 3,400  Level Los Angeles Center
07:36PM 36.0758 -115.2267 270° West 204 235 4,600 1,680 Climbing Los Angeles Center
07:37PM 36.1061 -115.2881 301° West 250 288 6,500 2,580 Climbing Los Angeles Center
07:38PM 36.1758 -115.2497 24° Northeast 307 353 9,600 2,340 Climbing Los Angeles Center
07:39PM 36.1975 -115.1436 76° East 324 373 11,300 1,980 Climbing Los Angeles Center
07:40PM 36.1972 -115.0139 90° East 371 427 13,800 2,460 Climbing Los Angeles Center
07:41PM 36.1997 -114.8517 89° East 389 448 16,500 2,460 Climbing Los Angeles Center
07:42PM 36.2000 -114.7100 90° East 405 466 19,000 2,160 Climbing Los Angeles Center
07:43PM 36.1975 -114.5625 91° East 422 486 21,000 1,800 Climbing Los Angeles Center
07:44PM 36.1947 -114.4094 91° East 437 503 22,800 1,680 Climbing Los Angeles Center
07:45PM 36.1919 -114.2514 91° East 452 520 24,500 1,500 Climbing Los Angeles Center
07:46PM 36.2103 -114.0939 82° East 459 528 26,000 1,260 Climbing Los Angeles Center
07:47PM 36.2300 -113.9336 81° East 467 537 27,200 1,260 Climbing Los Angeles Center
07:48PM 36.2533 -113.7356 82° East 482 555 28,700 1,260 Climbing Los Angeles Center
07:49PM 36.2728 -113.5675 82° East 491 565 29,900 1,080 Climbing Los Angeles Center
07:50PM 36.2922 -113.3958 82° East 500 575 31,000 900 Climbing Los Angeles Center
07:51PM 36.3139 -113.2286 81° East 504 580 31,800 900 Climbing Los Angeles Center
07:52PM 36.3689 -113.0722 66° East 497 572 32,900 960 Climbing Los Angeles Center
07:53PM 36.4258 -112.9194 65° Northeast 491 565 33,900 900 Climbing Los Angeles Center
07:54PM 36.4942 -112.7336 65° Northeast 494 568 34,800 480 Climbing Los Angeles Center
07:55PM 36.5519 -112.5772 65° Northeast 500 575 35,000 60 Climbing Los Angeles Center
07:56PM 36.6086 -112.4217 66° East 498 573 35,000  Level Los Angeles Center
07:57PM 36.6656 -112.2647 66° East 500 575 35,000  Level Los Angeles Center
07:58PM 36.7219 -112.1072 66° East 501 577 35,000  Level Los Angeles Center
07:59PM 36.7567 -112.0122 65° Northeast 502 578 35,000  Level Denver Center
08:00PM 36.8136 -111.8525 66° East 504 580 35,000  Level Denver Center
08:01PM 36.8714 -111.6931 66° East 506 582 35,000  Level Denver Center
08:02PM 36.9281 -111.5333 66° East 507 583 35,000  Level Denver Center
08:03PM 36.9967 -111.3386 66° East 510 587 35,000  Level Denver Center
08:04PM 37.0525 -111.1778 66° East 510 587 35,000  Level Denver Center
08:05PM 37.1089 -111.0150 66° East 513 590 35,000  Level Denver Center
08:06PM 37.1661 -110.8506 66° East 515 593 35,000  Level Denver Center
08:07PM 37.2225 -110.6875 66° East 513 590 35,000  Level Denver Center
08:08PM 37.2781 -110.5222 67° East 514 592 35,000  Level Denver Center
08:09PM 37.3342 -110.3586 67° East 512 589 35,000  Level Denver Center
08:10PM 37.3919 -110.1886 67° East 514 592 35,000  Level Denver Center
08:11PM 37.4558 -109.9994 67° East 523 602 35,000  Level Denver Center
08:12PM 37.5086 -109.8419 67° East 513 590 35,000  Level Denver Center
08:13PM 37.5714 -109.6561 67° East 515 593 35,000  Level Denver Center
08:14PM 37.6250 -109.4933 67° East 522 601 35,000  Level Denver Center
08:15PM 37.6772 -109.3333 68° East 516 594 35,000  Level Denver Center
08:16PM 37.7389 -109.1478 67° East 514 592 35,000  Level Denver Center
08:17PM 37.7911 -108.9853 68° East 519 597 35,000  Level Denver Center
08:18PM 37.8797 -108.8700 46° Northeast 478 550 35,000  Level Denver Center
08:19PM 38.0011 -108.7681 33° Northeast 468 539 35,000  Level Denver Center
08:20PM 38.1122 -108.6706 35° Northeast 475 547 35,000  Level Denver Center
08:21PM 38.2158 -108.5792 35° Northeast 474 545 35,000  Level Denver Center
08:22PM 38.3386 -108.4722 34° Northeast 477 549 35,000  Level Denver Center
08:23PM 38.4403 -108.3844 34° Northeast 463 533 35,000  Level Denver Center
08:25PM 38.5411 -108.2983 34° Northeast 457 526 35,000  Level Denver Center
08:26PM 38.6775 -108.1778 35° Northeast 466 536 35,000  Level Denver Center
08:27PM 38.7792 -108.0875 35° Northeast 466 536 35,000  Level Denver Center
08:28PM 38.8986 -107.9819 35° Northeast 467 537 35,000  Level Denver Center
08:29PM 39.0019 -107.8908 34° Northeast 470 541 35,000  Level Denver Center
08:30PM 39.1214 -107.7853 34° Northeast 468 539 35,000  Level Denver Center
08:31PM 39.2231 -107.6931 35° Northeast 468 539 35,000  Level Denver Center
08:32PM 39.3250 -107.6008 35° Northeast 468 539 35,000  Level Denver Center
08:33PM 39.4444 -107.4942 35° Northeast 467 537 35,000  Level Denver Center
08:34PM 39.5467 -107.4006 35° Northeast 469 540 35,000  Level Denver Center
08:35PM 39.6689 -107.2897 35° Northeast 477 549 35,000  Level Denver Center
08:36PM 39.7569 -107.2086 35° Northeast 484 557 35,000 180 Level Denver Center
08:37PM 39.8753 -107.1025 35° Northeast 471 542 35,400 900 Climbing Denver Center
08:38PM 39.9956 -106.9903 36° Northeast 470 541 36,900 780 Climbing Denver Center
08:39PM 40.0942 -106.8997 35° Northeast 457 526 37,000  Climbing Denver Center
08:40PM 40.1914 -106.8094 35° Northeast 451 519 37,000  Level Denver Center
08:41PM 40.2925 -106.7164 35° Northeast 450 518 37,000  Level Denver Center
08:42PM 40.3958 -106.6222 35° Northeast 451 519 37,000  Level Denver Center
08:43PM 40.5181 -106.5053 36° Northeast 452 520 37,000  Level Denver Center
08:44PM 40.6150 -106.4114 36° Northeast 452 520 37,000  Level Denver Center
08:45PM 40.7167 -106.3169 35° Northeast 461 531 37,000  Level Denver Center
08:46PM 40.8125 -106.2247 36° Northeast 460 529 37,000  Level Denver Center
08:47PM 40.9361 -106.1069 36° Northeast 466 536 37,000  Level Denver Center
08:48PM 41.0469 -106.0003 36° Northeast 469 540 37,000  Level Denver Center
08:49PM 41.1492 -105.9044 35° Northeast 470 541 37,000  Level Denver Center
08:50PM 41.2481 -105.8058 37° Northeast 466 536 37,000  Level Denver Center
08:51PM 41.3492 -105.6675 46° Northeast 487 560 37,000  Level Denver Center
08:52PM 41.3947 -105.5058 69° East 489 563 37,000  Level Denver Center
08:53PM 41.4422 -105.3128 72° East 490 564 37,000  Level Denver Center
08:54PM 41.4836 -105.1514 71° East 484 557 37,000  Level Denver Center
08:55PM 41.5269 -104.9858 71° East 492 566 37,000  Level Denver Center
08:56PM 41.5747 -104.7928 72° East 493 567 37,000  Level Denver Center
08:57PM 41.6153 -104.6289 72° East 489 563 37,000  Level Denver Center
08:58PM 41.6631 -104.4319 72° East 497 572 37,000  Level Denver Center
09:00PM 41.6844 -104.2556 81° East 505 581 37,000  Level Denver Center
09:01PM 41.7136 -104.0203 80° East 505 581 37,000  Level Denver Center
09:02PM 41.7358 -103.8411 81° East 509 586 37,000  Level Denver Center
09:03PM 41.7569 -103.6619 81° East 510 587 37,000  Level Denver Center
09:04PM 41.7819 -103.4517 81° East 512 589 37,000  Level Denver Center
09:05PM 41.8033 -103.2725 81° East 512 589 37,000  Level Denver Center
09:06PM 41.8275 -103.0614 81° East 515 593 37,000  Level Denver Center
09:07PM 41.8478 -102.8833 81° East 508 585 37,000  Level Denver Center
09:08PM 41.8678 -102.7044 81° East 509 586 37,000  Level Denver Center
09:09PM 41.8906 -102.4933 82° East 513 590 37,000  Level Denver Center
09:10PM 41.9094 -102.3136 82° East 511 588 37,000  Level Denver Center
09:11PM 41.9297 -102.1269 82° East 511 588 37,000  Level Denver Center
09:12PM 41.9517 -101.9172 82° East 508 585 37,000  Level Denver Center
09:13PM 41.9711 -101.7367 82° East 509 586 37,000  Level Denver Center
09:14PM 41.9889 -101.5567 82° East 508 585 37,000  Level Denver Center
09:15PM 42.0103 -101.3456 82° East 509 586 37,000  Level Denver Center
09:17PM 42.0450 -100.9861 82° East 495 570 37,000  Level Minneapolis Center
09:18PM 42.0622 -100.8028 83° East 494 568 37,000  Level Minneapolis Center
09:19PM 42.0800 -100.6214 82° East 490 564 37,000  Level Minneapolis Center
09:20PM 42.0969 -100.4392 83° East 490 564 37,000  Level Minneapolis Center
09:21PM 42.1128 -100.2556 83° East 491 565 37,000  Level Minneapolis Center
09:22PM 42.1314 -100.0369 83° East 490 564 37,000  Level Minneapolis Center
09:23PM 42.1475 -99.8569 83° East 493 567 37,000  Level Denver Center
09:24PM 42.1633 -99.6692 83° East 491 565 37,000  Level Denver Center
09:25PM 42.1783 -99.4856 84° East 490 564 37,000  Level Denver Center
09:26PM 42.1942 -99.2983 83° East 498 573 37,000  Level Minneapolis Center
09:27PM 42.2094 -99.1133 84° East 496 571 37,000  Level Minneapolis Center
09:28PM 42.2228 -98.9250 84° East 500 575 37,000  Level Minneapolis Center
09:29PM 42.2378 -98.7386 84° East 499 574 37,000  Level Minneapolis Center
09:30PM 42.2517 -98.5533 84° East 499 574 37,000  Level Minneapolis Center
09:31PM 42.2650 -98.3669 84° East 498 573 37,000  Level Minneapolis Center
09:32PM 42.2786 -98.1828 84° East 493 567 37,000  Level Minneapolis Center
09:33PM 42.2917 -97.9964 85° East 497 572 37,000  Level Minneapolis Center
09:34PM 42.3036 -97.8092 85° East 498 573 37,000  Level Minneapolis Center
09:35PM 42.3167 -97.6258 84° East 495 570 37,000  Level Minneapolis Center
09:36PM 42.3278 -97.4386 85° East 496 571 37,000  Level Minneapolis Center
09:37PM 42.3397 -97.2542 85° East 495 570 37,000  Level Minneapolis Center
09:38PM 42.3519 -97.0686 85° East 495 570 37,000  Level Minneapolis Center
09:39PM 42.3633 -96.8831 85° East 495 570 37,000  Level Minneapolis Center
09:40PM 42.3731 -96.6972 86° East 495 570 37,000  Level Minneapolis Center
09:41PM 42.3839 -96.5139 85° East 493 567 37,000  Level Minneapolis Center
09:42PM 42.3947 -96.3300 85° East 491 565 37,000  Level Minneapolis Center
09:43PM 42.4042 -96.1450 86° East 490 564 37,000  Level Minneapolis Center
09:44PM 42.4136 -95.9608 86° East 492 566 37,000  Level Minneapolis Center
09:45PM 42.4256 -95.7358 86° East 493 567 37,000  Level Minneapolis Center
09:46PM 42.4333 -95.5475 87° East 498 573 37,000  Level Minneapolis Center
09:47PM 42.4422 -95.3606 86° East 497 572 37,000  Level Minneapolis Center
09:48PM 42.4511 -95.1739 86° East 497 572 37,000  Level Minneapolis Center
09:49PM 42.4592 -94.9861 87° East 498 573 37,000  Level Minneapolis Center
09:50PM 42.4667 -94.7992 87° East 497 572 37,000  Level Minneapolis Center
09:51PM 42.4742 -94.6092 87° East 502 578 37,000  Level Minneapolis Center
09:52PM 42.4786 -94.4417 88° East 506 582 37,000  Level Minneapolis Center
09:53PM 42.4864 -94.2536 87° East 506 582 37,000  Level Minneapolis Center
09:54PM 42.4950 -94.0278 87° East 503 579 37,000  Level Minneapolis Center
09:55PM 42.5008 -93.8406 88° East 502 578 37,000  Level Minneapolis Center
09:56PM 42.5064 -93.6547 88° East 499 574 37,000  Level Minneapolis Center
09:57PM 42.5131 -93.4675 87° East 501 577 37,000  Level Minneapolis Center
09:59PM 42.5181 -93.2792 88° East 503 579 37,000  Level Minneapolis Center
10:00PM 42.5236 -93.0919 88° East 502 578 37,000  Level Minneapolis Center
10:01PM 42.5278 -92.9047 88° East 501 577 37,000  Level Minneapolis Center
10:02PM 42.5328 -92.7186 88° East 498 573 37,000  Level Minneapolis Center
10:03PM 42.5364 -92.5342 88° East 496 571 37,000  Level Minneapolis Center
10:04PM 42.5403 -92.3500 88° East 494 568 37,000  Level Minneapolis Center
10:05PM 42.5444 -92.1294 88° East 494 568 37,000  Level Minneapolis Center
10:05PM 42.5458 -92.0547 89° East 495 570 37,000  Level Chicago Center
10:06PM 42.5492 -91.8719 89° East 491 565 37,000  Level Chicago Center
10:07PM 42.5514 -91.6919 89° East 490 564 37,000  Level Chicago Center
10:08PM 42.5542 -91.5125 89° East 491 565 37,000  Level Chicago Center
10:09PM 42.5564 -91.3336 89° East 487 560 37,000  Level Chicago Center
10:10PM 42.5592 -91.1164 89° East 489 563 37,000  Level Chicago Center
10:11PM 42.5719 -90.9353 84° East 489 563 37,000  Level Chicago Center
10:12PM 42.5828 -90.7536 85° East 488 562 37,000  Level Chicago Center
10:13PM 42.5942 -90.5711 85° East 491 565 37,000  Level Chicago Center
10:14PM 42.6039 -90.3869 86° East 493 567 37,000 -420 Level Chicago Center
10:15PM 42.6158 -90.2011 85° East 497 572 36,200 -1,740 Descending Chicago Center
10:16PM 42.6253 -90.0156 86° East 498 573 33,500 -3,000 Descending Chicago Center
10:17PM 42.6358 -89.8067 86° East 505 581 30,200 -2,880 Descending Chicago Center
10:18PM 42.6453 -89.6194 86° East 500 575 27,700 -2,400 Descending Chicago Center
10:19PM 42.6550 -89.4372 86° East 487 560 25,400 -2,340 Descending Chicago Center
10:20PM 42.6628 -89.2589 87° East 478 550 23,100 -2,340 Descending Chicago Center
10:21PM 42.6717 -89.0842 86° East 465 535 20,800 -2,280 Descending Chicago Center
10:22PM 42.6789 -88.9147 87° East 456 525 18,600 -2,340 Descending Chicago Center
10:23PM 42.6864 -88.7467 86° East 447 514 16,200 -2,400 Descending Chicago Center
10:24PM 42.6928 -88.5814 87° East 436 502 13,800 -2,340 Descending Chicago Center
10:25PM 42.7003 -88.4186 86° East 435 501 11,500 -1,920 Descending Chicago Center
10:26PM 42.7067 -88.2597 87° East 425 489 10,000 -1,140 Descending Chicago Center
10:27PM 42.7478 -88.1428 64° Northeast 349 402 9,200 -1,200 Descending Chicago Center
10:28PM 42.7847 -88.0342 65° Northeast 323 372 7,700 -1,980 Descending Chicago Center
10:29PM 42.8283 -87.9253 61° Northeast 286 329 5,300 -2,040 Descending Chicago Center
10:30PM 42.8600 -87.8458 61° Northeast 250 288 3,600 -1,440 Descending Chicago Center
10:31PM 42.8933 -87.7994 46° Northeast 202 232 2,500 -900 Descending Chicago Center
10:32PM 42.9353 -87.7994 360° North 169 194 1,800 -600 Descending Chicago Center
10:33PM 42.9561 -87.8417 304° West 152 175 1,400 -300 Descending Chicago Center
10:34PM 42.9558 -87.8928 270° West 150 173 1,200 -240 Descending Chicago Center
10:36PM 42.9469 -87.8971 180° South  Level Estimated